sensor_id;sensor_type;location;lat;lon;timestamp;P1;durP1;ratioP1;P2;durP2;ratioP2
19814;SDS011;10067;53.092;8.800;2024-03-08T00:00:16;39.10;;;23.53;;
19814;SDS011;10067;53.092;8.800;2024-03-08T00:02:43;41.07;;;23.77;;
19814;SDS011;10067;53.092;8.800;2024-03-08T00:05:10;40.97;;;23.10;;
19814;SDS011;10067;53.092;8.800;2024-03-08T00:07:37;36.80;;;23.13;;
19814;SDS011;10067;53.092;8.800;2024-03-08T00:10:05;42.43;;;24.60;;
19814;SDS011;10067;53.092;8.800;2024-03-08T00:12:32;41.03;;;24.30;;
19814;SDS011;10067;53.092;8.800;2024-03-08T00:14:59;43.77;;;23.90;;
19814;SDS011;10067;53.092;8.800;2024-03-08T00:17:27;43.33;;;23.87;;
19814;SDS011;10067;53.092;8.800;2024-03-08T00:19:54;41.50;;;22.63;;
19814;SDS011;10067;53.092;8.800;2024-03-08T00:22:20;41.73;;;23.97;;
19814;SDS011;10067;53.092;8.800;2024-03-08T00:24:47;43.47;;;23.77;;
19814;SDS011;10067;53.092;8.800;2024-03-08T00:27:14;39.80;;;23.60;;
19814;SDS011;10067;53.092;8.800;2024-03-08T00:29:40;44.27;;;25.07;;
19814;SDS011;10067;53.092;8.800;2024-03-08T00:32:07;42.30;;;23.27;;
19814;SDS011;10067;53.092;8.800;2024-03-08T00:34:36;45.20;;;24.67;;
19814;SDS011;10067;53.092;8.800;2024-03-08T00:37:02;39.47;;;23.20;;
19814;SDS011;10067;53.092;8.800;2024-03-08T00:39:29;40.83;;;23.37;;
19814;SDS011;10067;53.092;8.800;2024-03-08T00:41:55;42.07;;;24.63;;
19814;SDS011;10067;53.092;8.800;2024-03-08T00:44:22;37.97;;;24.27;;
19814;SDS011;10067;53.092;8.800;2024-03-08T00:46:48;39.97;;;24.43;;
19814;SDS011;10067;53.092;8.800;2024-03-08T00:49:14;42.10;;;24.53;;
19814;SDS011;10067;53.092;8.800;2024-03-08T00:51:43;42.20;;;25.30;;
19814;SDS011;10067;53.092;8.800;2024-03-08T00:54:09;44.00;;;24.30;;
19814;SDS011;10067;53.092;8.800;2024-03-08T00:56:36;42.97;;;24.17;;
19814;SDS011;10067;53.092;8.800;2024-03-08T00:59:04;45.03;;;24.70;;
19814;SDS011;10067;53.092;8.800;2024-03-08T01:01:31;42.40;;;24.90;;
19814;SDS011;10067;53.092;8.800;2024-03-08T01:03:57;38.77;;;23.10;;
19814;SDS011;10067;53.092;8.800;2024-03-08T01:06:24;39.97;;;24.20;;
19814;SDS011;10067;53.092;8.800;2024-03-08T01:08:53;49.17;;;25.37;;
19814;SDS011;10067;53.092;8.800;2024-03-08T01:11:19;40.07;;;23.63;;
19814;SDS011;10067;53.092;8.800;2024-03-08T01:13:46;41.60;;;24.17;;
19814;SDS011;10067;53.092;8.800;2024-03-08T01:16:12;39.17;;;23.20;;
19814;SDS011;10067;53.092;8.800;2024-03-08T01:18:38;38.37;;;23.40;;
19814;SDS011;10067;53.092;8.800;2024-03-08T01:21:05;40.53;;;24.07;;
19814;SDS011;10067;53.092;8.800;2024-03-08T01:23:31;40.90;;;23.50;;
19814;SDS011;10067;53.092;8.800;2024-03-08T01:25:59;43.43;;;24.70;;
19814;SDS011;10067;53.092;8.800;2024-03-08T01:28:25;41.17;;;24.30;;
19814;SDS011;10067;53.092;8.800;2024-03-08T01:30:52;43.23;;;23.40;;
19814;SDS011;10067;53.092;8.800;2024-03-08T01:33:20;41.97;;;23.17;;
19814;SDS011;10067;53.092;8.800;2024-03-08T01:35:47;43.30;;;24.60;;
19814;SDS011;10067;53.092;8.800;2024-03-08T01:38:14;41.20;;;23.50;;
19814;SDS011;10067;53.092;8.800;2024-03-08T01:40:40;41.83;;;25.13;;
19814;SDS011;10067;53.092;8.800;2024-03-08T01:43:21;40.93;;;24.93;;
19814;SDS011;10067;53.092;8.800;2024-03-08T01:45:48;44.23;;;24.77;;
19814;SDS011;10067;53.092;8.800;2024-03-08T01:48:14;40.13;;;24.07;;
19814;SDS011;10067;53.092;8.800;2024-03-08T01:50:41;44.50;;;24.50;;
19814;SDS011;10067;53.092;8.800;2024-03-08T01:53:08;40.10;;;24.47;;
19814;SDS011;10067;53.092;8.800;2024-03-08T01:55:36;41.07;;;24.80;;
19814;SDS011;10067;53.092;8.800;2024-03-08T01:58:03;43.67;;;24.90;;
19814;SDS011;10067;53.092;8.800;2024-03-08T02:00:32;42.23;;;24.90;;
19814;SDS011;10067;53.092;8.800;2024-03-08T02:02:58;42.13;;;24.97;;
19814;SDS011;10067;53.092;8.800;2024-03-08T02:05:25;41.80;;;23.47;;
19814;SDS011;10067;53.092;8.800;2024-03-08T02:07:52;41.87;;;25.47;;
19814;SDS011;10067;53.092;8.800;2024-03-08T02:10:18;42.00;;;24.40;;
19814;SDS011;10067;53.092;8.800;2024-03-08T02:12:45;41.53;;;24.77;;
19814;SDS011;10067;53.092;8.800;2024-03-08T02:15:12;43.00;;;25.00;;
19814;SDS011;10067;53.092;8.800;2024-03-08T02:17:41;40.23;;;25.07;;
19814;SDS011;10067;53.092;8.800;2024-03-08T02:20:08;41.30;;;23.73;;
19814;SDS011;10067;53.092;8.800;2024-03-08T02:22:37;46.30;;;24.87;;
19814;SDS011;10067;53.092;8.800;2024-03-08T02:25:05;44.53;;;24.73;;
19814;SDS011;10067;53.092;8.800;2024-03-08T02:27:32;46.47;;;24.47;;
19814;SDS011;10067;53.092;8.800;2024-03-08T02:29:59;41.90;;;24.17;;
19814;SDS011;10067;53.092;8.800;2024-03-08T02:32:25;41.47;;;23.63;;
19814;SDS011;10067;53.092;8.800;2024-03-08T02:34:55;47.33;;;24.90;;
19814;SDS011;10067;53.092;8.800;2024-03-08T02:37:22;42.30;;;24.43;;
19814;SDS011;10067;53.092;8.800;2024-03-08T02:39:49;42.97;;;24.77;;
19814;SDS011;10067;53.092;8.800;2024-03-08T02:42:15;41.20;;;24.50;;
19814;SDS011;10067;53.092;8.800;2024-03-08T02:44:42;41.43;;;23.73;;
19814;SDS011;10067;53.092;8.800;2024-03-08T02:47:10;41.17;;;24.93;;
19814;SDS011;10067;53.092;8.800;2024-03-08T02:49:36;40.07;;;24.47;;
19814;SDS011;10067;53.092;8.800;2024-03-08T02:52:03;42.90;;;24.27;;
19814;SDS011;10067;53.092;8.800;2024-03-08T02:54:30;38.27;;;23.70;;
19814;SDS011;10067;53.092;8.800;2024-03-08T02:56:57;43.23;;;25.40;;
19814;SDS011;10067;53.092;8.800;2024-03-08T02:59:24;44.20;;;24.60;;
19814;SDS011;10067;53.092;8.800;2024-03-08T03:01:50;41.53;;;24.17;;
19814;SDS011;10067;53.092;8.800;2024-03-08T03:04:16;41.17;;;24.93;;
19814;SDS011;10067;53.092;8.800;2024-03-08T03:06:43;39.47;;;24.33;;
19814;SDS011;10067;53.092;8.800;2024-03-08T03:09:09;40.67;;;24.43;;
19814;SDS011;10067;53.092;8.800;2024-03-08T03:11:36;42.13;;;25.03;;
19814;SDS011;10067;53.092;8.800;2024-03-08T03:14:05;42.30;;;25.37;;
19814;SDS011;10067;53.092;8.800;2024-03-08T03:16:32;41.17;;;25.67;;
19814;SDS011;10067;53.092;8.800;2024-03-08T03:18:58;42.13;;;24.40;;
19814;SDS011;10067;53.092;8.800;2024-03-08T03:21:28;40.90;;;24.53;;
19814;SDS011;10067;53.092;8.800;2024-03-08T03:23:56;42.33;;;26.13;;
19814;SDS011;10067;53.092;8.800;2024-03-08T03:26:24;40.03;;;24.87;;
19814;SDS011;10067;53.092;8.800;2024-03-08T03:28:51;45.23;;;26.13;;
19814;SDS011;10067;53.092;8.800;2024-03-08T03:31:18;41.13;;;25.03;;
19814;SDS011;10067;53.092;8.800;2024-03-08T03:33:45;45.93;;;25.17;;
19814;SDS011;10067;53.092;8.800;2024-03-08T03:36:12;43.80;;;26.37;;
19814;SDS011;10067;53.092;8.800;2024-03-08T03:38:39;40.13;;;24.33;;
19814;SDS011;10067;53.092;8.800;2024-03-08T03:41:05;45.00;;;25.93;;
19814;SDS011;10067;53.092;8.800;2024-03-08T03:43:35;45.47;;;25.73;;
19814;SDS011;10067;53.092;8.800;2024-03-08T03:46:05;42.63;;;26.57;;
19814;SDS011;10067;53.092;8.800;2024-03-08T03:48:33;43.47;;;25.07;;
19814;SDS011;10067;53.092;8.800;2024-03-08T03:50:59;48.53;;;26.33;;
19814;SDS011;10067;53.092;8.800;2024-03-08T03:53:25;44.23;;;27.10;;
19814;SDS011;10067;53.092;8.800;2024-03-08T03:55:52;49.63;;;26.50;;
19814;SDS011;10067;53.092;8.800;2024-03-08T03:58:18;44.47;;;26.10;;
19814;SDS011;10067;53.092;8.800;2024-03-08T04:00:47;50.47;;;25.50;;
19814;SDS011;10067;53.092;8.800;2024-03-08T04:03:13;45.60;;;27.13;;
19814;SDS011;10067;53.092;8.800;2024-03-08T04:05:43;44.90;;;27.03;;
19814;SDS011;10067;53.092;8.800;2024-03-08T04:08:09;44.57;;;27.07;;
19814;SDS011;10067;53.092;8.800;2024-03-08T04:10:36;40.80;;;25.70;;
19814;SDS011;10067;53.092;8.800;2024-03-08T04:13:02;46.63;;;27.93;;
19814;SDS011;10067;53.092;8.800;2024-03-08T04:15:33;47.13;;;28.17;;
19814;SDS011;10067;53.092;8.800;2024-03-08T04:17:59;44.80;;;26.67;;
19814;SDS011;10067;53.092;8.800;2024-03-08T04:20:27;50.80;;;27.17;;
19814;SDS011;10067;53.092;8.800;2024-03-08T04:22:54;46.47;;;26.77;;
19814;SDS011;10067;53.092;8.800;2024-03-08T04:25:21;47.70;;;27.47;;
19814;SDS011;10067;53.092;8.800;2024-03-08T04:27:47;47.47;;;27.50;;
19814;SDS011;10067;53.092;8.800;2024-03-08T04:30:14;50.87;;;27.90;;
19814;SDS011;10067;53.092;8.800;2024-03-08T04:32:41;44.40;;;27.03;;
19814;SDS011;10067;53.092;8.800;2024-03-08T04:35:08;49.80;;;27.00;;
19814;SDS011;10067;53.092;8.800;2024-03-08T04:37:34;51.37;;;28.00;;
19814;SDS011;10067;53.092;8.800;2024-03-08T04:40:03;50.77;;;29.07;;
19814;SDS011;10067;53.092;8.800;2024-03-08T04:42:29;47.90;;;27.47;;
19814;SDS011;10067;53.092;8.800;2024-03-08T04:44:58;49.83;;;28.37;;
19814;SDS011;10067;53.092;8.800;2024-03-08T04:47:24;46.37;;;27.77;;
19814;SDS011;10067;53.092;8.800;2024-03-08T04:49:51;52.57;;;26.77;;
19814;SDS011;10067;53.092;8.800;2024-03-08T04:52:17;45.80;;;28.07;;
19814;SDS011;10067;53.092;8.800;2024-03-08T04:54:43;47.50;;;28.03;;
19814;SDS011;10067;53.092;8.800;2024-03-08T04:57:12;52.83;;;28.67;;
19814;SDS011;10067;53.092;8.800;2024-03-08T04:59:38;50.13;;;27.97;;
19814;SDS011;10067;53.092;8.800;2024-03-08T05:02:04;51.77;;;28.47;;
19814;SDS011;10067;53.092;8.800;2024-03-08T05:04:32;51.27;;;28.93;;
19814;SDS011;10067;53.092;8.800;2024-03-08T05:06:58;45.10;;;27.97;;
19814;SDS011;10067;53.092;8.800;2024-03-08T05:09:26;46.87;;;27.40;;
19814;SDS011;10067;53.092;8.800;2024-03-08T05:11:54;49.27;;;29.07;;
19814;SDS011;10067;53.092;8.800;2024-03-08T05:14:23;50.17;;;29.77;;
19814;SDS011;10067;53.092;8.800;2024-03-08T05:16:50;51.50;;;29.87;;
19814;SDS011;10067;53.092;8.800;2024-03-08T05:19:16;56.87;;;29.53;;
19814;SDS011;10067;53.092;8.800;2024-03-08T05:21:43;57.80;;;30.50;;
19814;SDS011;10067;53.092;8.800;2024-03-08T05:24:09;53.17;;;29.73;;
19814;SDS011;10067;53.092;8.800;2024-03-08T05:26:36;50.87;;;28.93;;
19814;SDS011;10067;53.092;8.800;2024-03-08T05:29:03;53.23;;;30.17;;
19814;SDS011;10067;53.092;8.800;2024-03-08T05:31:31;48.63;;;28.83;;
19814;SDS011;10067;53.092;8.800;2024-03-08T05:34:01;45.13;;;28.10;;
19814;SDS011;10067;53.092;8.800;2024-03-08T05:36:28;53.20;;;29.90;;
19814;SDS011;10067;53.092;8.800;2024-03-08T05:38:54;46.77;;;28.40;;
19814;SDS011;10067;53.092;8.800;2024-03-08T05:41:20;48.43;;;28.30;;
19814;SDS011;10067;53.092;8.800;2024-03-08T05:43:47;45.93;;;28.47;;
19814;SDS011;10067;53.092;8.800;2024-03-08T05:46:15;47.60;;;29.47;;
19814;SDS011;10067;53.092;8.800;2024-03-08T05:48:44;47.20;;;28.37;;
19814;SDS011;10067;53.092;8.800;2024-03-08T05:51:11;50.13;;;29.37;;
19814;SDS011;10067;53.092;8.800;2024-03-08T05:53:38;53.47;;;29.37;;
19814;SDS011;10067;53.092;8.800;2024-03-08T05:56:05;52.83;;;30.07;;
19814;SDS011;10067;53.092;8.800;2024-03-08T05:58:31;51.60;;;28.80;;
19814;SDS011;10067;53.092;8.800;2024-03-08T06:00:57;48.90;;;29.17;;
19814;SDS011;10067;53.092;8.800;2024-03-08T06:03:24;50.60;;;31.33;;
19814;SDS011;10067;53.092;8.800;2024-03-08T06:05:51;54.10;;;31.77;;
19814;SDS011;10067;53.092;8.800;2024-03-08T06:08:18;56.93;;;30.57;;
19814;SDS011;10067;53.092;8.800;2024-03-08T06:10:45;50.60;;;29.70;;
19814;SDS011;10067;53.092;8.800;2024-03-08T06:13:13;55.00;;;31.73;;
19814;SDS011;10067;53.092;8.800;2024-03-08T06:15:40;55.23;;;31.43;;
19814;SDS011;10067;53.092;8.800;2024-03-08T06:18:07;55.97;;;32.20;;
19814;SDS011;10067;53.092;8.800;2024-03-08T06:20:35;58.90;;;30.63;;
19814;SDS011;10067;53.092;8.800;2024-03-08T06:23:03;54.77;;;31.77;;
19814;SDS011;10067;53.092;8.800;2024-03-08T06:25:30;50.50;;;30.23;;
19814;SDS011;10067;53.092;8.800;2024-03-08T06:27:56;54.20;;;31.50;;
19814;SDS011;10067;53.092;8.800;2024-03-08T06:30:22;49.73;;;30.27;;
19814;SDS011;10067;53.092;8.800;2024-03-08T06:32:49;54.03;;;31.87;;
19814;SDS011;10067;53.092;8.800;2024-03-08T06:35:15;56.17;;;31.10;;
19814;SDS011;10067;53.092;8.800;2024-03-08T06:37:41;51.97;;;31.93;;
19814;SDS011;10067;53.092;8.800;2024-03-08T06:40:11;53.03;;;31.03;;
19814;SDS011;10067;53.092;8.800;2024-03-08T06:42:38;57.77;;;31.70;;
19814;SDS011;10067;53.092;8.800;2024-03-08T06:45:05;56.80;;;31.10;;
19814;SDS011;10067;53.092;8.800;2024-03-08T06:47:34;55.97;;;30.73;;
19814;SDS011;10067;53.092;8.800;2024-03-08T06:50:00;53.03;;;31.13;;
19814;SDS011;10067;53.092;8.800;2024-03-08T06:52:26;57.20;;;31.00;;
19814;SDS011;10067;53.092;8.800;2024-03-08T06:54:53;51.13;;;30.23;;
19814;SDS011;10067;53.092;8.800;2024-03-08T06:57:21;53.60;;;31.27;;
19814;SDS011;10067;53.092;8.800;2024-03-08T06:59:47;55.13;;;30.50;;
19814;SDS011;10067;53.092;8.800;2024-03-08T07:02:14;56.80;;;31.93;;
19814;SDS011;10067;53.092;8.800;2024-03-08T07:04:40;50.47;;;30.30;;
19814;SDS011;10067;53.092;8.800;2024-03-08T07:07:06;55.43;;;31.07;;
19814;SDS011;10067;53.092;8.800;2024-03-08T07:09:34;49.40;;;30.07;;
19814;SDS011;10067;53.092;8.800;2024-03-08T07:12:00;48.57;;;29.73;;
19814;SDS011;10067;53.092;8.800;2024-03-08T07:14:28;52.13;;;30.57;;
19814;SDS011;10067;53.092;8.800;2024-03-08T07:16:56;49.20;;;30.57;;
19814;SDS011;10067;53.092;8.800;2024-03-08T07:19:22;53.07;;;31.77;;
19814;SDS011;10067;53.092;8.800;2024-03-08T07:21:49;48.73;;;28.97;;
19814;SDS011;10067;53.092;8.800;2024-03-08T07:24:15;48.97;;;29.63;;
19814;SDS011;10067;53.092;8.800;2024-03-08T07:27:03;49.47;;;29.53;;
19814;SDS011;10067;53.092;8.800;2024-03-08T07:29:31;53.77;;;32.17;;
19814;SDS011;10067;53.092;8.800;2024-03-08T07:31:58;53.20;;;30.83;;
19814;SDS011;10067;53.092;8.800;2024-03-08T07:34:37;51.67;;;31.80;;
19814;SDS011;10067;53.092;8.800;2024-03-08T07:37:05;45.17;;;29.27;;
19814;SDS011;10067;53.092;8.800;2024-03-08T07:39:36;46.47;;;28.50;;
19814;SDS011;10067;53.092;8.800;2024-03-08T07:42:02;48.23;;;29.23;;
19814;SDS011;10067;53.092;8.800;2024-03-08T07:44:28;49.63;;;30.00;;
19814;SDS011;10067;53.092;8.800;2024-03-08T07:46:58;47.33;;;29.87;;
19814;SDS011;10067;53.092;8.800;2024-03-08T07:49:24;51.67;;;28.67;;
19814;SDS011;10067;53.092;8.800;2024-03-08T07:51:50;47.13;;;27.80;;
19814;SDS011;10067;53.092;8.800;2024-03-08T07:54:17;47.07;;;28.10;;
19814;SDS011;10067;53.092;8.800;2024-03-08T07:56:43;47.80;;;27.90;;
19814;SDS011;10067;53.092;8.800;2024-03-08T07:59:09;52.93;;;29.90;;
19814;SDS011;10067;53.092;8.800;2024-03-08T08:01:37;43.80;;;27.83;;
19814;SDS011;10067;53.092;8.800;2024-03-08T08:04:04;43.83;;;29.00;;
19814;SDS011;10067;53.092;8.800;2024-03-08T08:06:31;47.57;;;27.10;;
19814;SDS011;10067;53.092;8.800;2024-03-08T08:08:58;43.57;;;27.77;;
19814;SDS011;10067;53.092;8.800;2024-03-08T08:11:25;50.23;;;28.20;;
19814;SDS011;10067;53.092;8.800;2024-03-08T08:13:52;46.00;;;28.03;;
19814;SDS011;10067;53.092;8.800;2024-03-08T08:16:19;41.30;;;27.63;;
19814;SDS011;10067;53.092;8.800;2024-03-08T08:18:46;44.57;;;27.80;;
19814;SDS011;10067;53.092;8.800;2024-03-08T08:21:15;50.73;;;27.63;;
19814;SDS011;10067;53.092;8.800;2024-03-08T08:23:41;48.53;;;28.50;;
19814;SDS011;10067;53.092;8.800;2024-03-08T08:26:07;45.37;;;26.13;;
19814;SDS011;10067;53.092;8.800;2024-03-08T08:28:34;42.50;;;26.67;;
19814;SDS011;10067;53.092;8.800;2024-03-08T08:31:00;43.30;;;27.73;;
19814;SDS011;10067;53.092;8.800;2024-03-08T08:33:29;40.70;;;26.00;;
19814;SDS011;10067;53.092;8.800;2024-03-08T08:35:55;39.40;;;26.93;;
19814;SDS011;10067;53.092;8.800;2024-03-08T08:38:23;43.17;;;26.40;;
19814;SDS011;10067;53.092;8.800;2024-03-08T08:40:49;45.40;;;27.23;;
19814;SDS011;10067;53.092;8.800;2024-03-08T08:43:16;44.73;;;28.40;;
19814;SDS011;10067;53.092;8.800;2024-03-08T08:45:44;42.60;;;27.07;;
19814;SDS011;10067;53.092;8.800;2024-03-08T08:48:12;39.57;;;26.93;;
19814;SDS011;10067;53.092;8.800;2024-03-08T08:50:38;45.07;;;28.20;;
19814;SDS011;10067;53.092;8.800;2024-03-08T08:53:05;45.10;;;27.57;;
19814;SDS011;10067;53.092;8.800;2024-03-08T08:55:34;39.63;;;26.47;;
19814;SDS011;10067;53.092;8.800;2024-03-08T08:58:01;39.67;;;26.47;;
19814;SDS011;10067;53.092;8.800;2024-03-08T09:00:28;42.37;;;26.40;;
19814;SDS011;10067;53.092;8.800;2024-03-08T09:02:56;41.27;;;26.73;;
19814;SDS011;10067;53.092;8.800;2024-03-08T09:05:23;43.20;;;28.47;;
19814;SDS011;10067;53.092;8.800;2024-03-08T09:07:49;41.77;;;26.23;;
19814;SDS011;10067;53.092;8.800;2024-03-08T09:10:16;36.93;;;25.73;;
19814;SDS011;10067;53.092;8.800;2024-03-08T09:12:45;39.20;;;25.53;;
19814;SDS011;10067;53.092;8.800;2024-03-08T09:15:12;37.93;;;24.57;;
19814;SDS011;10067;53.092;8.800;2024-03-08T09:17:38;42.30;;;26.10;;
19814;SDS011;10067;53.092;8.800;2024-03-08T09:20:06;39.60;;;26.17;;
19814;SDS011;10067;53.092;8.800;2024-03-08T09:22:32;38.93;;;26.33;;
19814;SDS011;10067;53.092;8.800;2024-03-08T09:24:59;39.70;;;25.70;;
19814;SDS011;10067;53.092;8.800;2024-03-08T09:27:25;38.87;;;24.67;;
19814;SDS011;10067;53.092;8.800;2024-03-08T09:29:53;37.40;;;25.13;;
19814;SDS011;10067;53.092;8.800;2024-03-08T09:32:20;37.37;;;25.00;;
19814;SDS011;10067;53.092;8.800;2024-03-08T09:34:47;38.13;;;24.93;;
19814;SDS011;10067;53.092;8.800;2024-03-08T09:37:14;34.40;;;24.10;;
19814;SDS011;10067;53.092;8.800;2024-03-08T09:39:40;35.55;;;23.50;;
19814;SDS011;10067;53.092;8.800;2024-03-08T09:42:06;33.00;;;24.10;;
19814;SDS011;10067;53.092;8.800;2024-03-08T09:44:33;32.65;;;22.80;;
19814;SDS011;10067;53.092;8.800;2024-03-08T09:47:01;36.10;;;23.73;;
19814;SDS011;10067;53.092;8.800;2024-03-08T09:49:28;34.03;;;24.10;;
19814;SDS011;10067;53.092;8.800;2024-03-08T09:51:54;35.70;;;23.13;;
19814;SDS011;10067;53.092;8.800;2024-03-08T09:54:20;33.38;;;23.55;;
19814;SDS011;10067;53.092;8.800;2024-03-08T09:56:47;30.55;;;22.73;;
19814;SDS011;10067;53.092;8.800;2024-03-08T09:59:14;35.50;;;23.50;;
19814;SDS011;10067;53.092;8.800;2024-03-08T10:02:07;35.45;;;23.33;;
19814;SDS011;10067;53.092;8.800;2024-03-08T10:04:36;35.42;;;23.45;;
19814;SDS011;10067;53.092;8.800;2024-03-08T10:07:02;31.17;;;22.90;;
19814;SDS011;10067;53.092;8.800;2024-03-08T10:09:29;29.45;;;22.30;;
19814;SDS011;10067;53.092;8.800;2024-03-08T10:11:55;30.85;;;23.25;;
19814;SDS011;10067;53.092;8.800;2024-03-08T10:14:22;34.90;;;23.23;;
19814;SDS011;10067;53.092;8.800;2024-03-08T10:16:49;31.30;;;22.48;;
19814;SDS011;10067;53.092;8.800;2024-03-08T10:19:17;29.88;;;21.92;;
19814;SDS011;10067;53.092;8.800;2024-03-08T10:21:49;32.15;;;22.70;;
19814;SDS011;10067;53.092;8.800;2024-03-08T10:24:18;30.33;;;22.70;;
19814;SDS011;10067;53.092;8.800;2024-03-08T10:26:44;30.80;;;23.33;;
19814;SDS011;10067;53.092;8.800;2024-03-08T10:29:11;30.67;;;22.60;;
19814;SDS011;10067;53.092;8.800;2024-03-08T10:31:42;32.10;;;22.85;;
19814;SDS011;10067;53.092;8.800;2024-03-08T10:34:09;30.45;;;23.65;;
19814;SDS011;10067;53.092;8.800;2024-03-08T10:36:36;30.65;;;22.83;;
19814;SDS011;10067;53.092;8.800;2024-03-08T10:39:04;31.63;;;23.88;;
19814;SDS011;10067;53.092;8.800;2024-03-08T10:41:34;33.38;;;22.98;;
19814;SDS011;10067;53.092;8.800;2024-03-08T10:44:08;29.63;;;22.40;;
19814;SDS011;10067;53.092;8.800;2024-03-08T10:46:39;32.80;;;23.67;;
19814;SDS011;10067;53.092;8.800;2024-03-08T10:49:08;29.92;;;22.45;;
19814;SDS011;10067;53.092;8.800;2024-03-08T10:51:40;31.55;;;22.45;;
19814;SDS011;10067;53.092;8.800;2024-03-08T10:54:07;31.17;;;22.73;;
19814;SDS011;10067;53.092;8.800;2024-03-08T10:56:33;29.92;;;22.05;;
19814;SDS011;10067;53.092;8.800;2024-03-08T10:59:00;30.83;;;22.50;;
19814;SDS011;10067;53.092;8.800;2024-03-08T11:01:29;29.58;;;22.83;;
19814;SDS011;10067;53.092;8.800;2024-03-08T11:03:55;28.40;;;22.00;;
19814;SDS011;10067;53.092;8.800;2024-03-08T11:06:22;28.65;;;21.30;;
19814;SDS011;10067;53.092;8.800;2024-03-08T11:08:50;29.08;;;22.00;;
19814;SDS011;10067;53.092;8.800;2024-03-08T11:11:25;32.15;;;21.92;;
19814;SDS011;10067;53.092;8.800;2024-03-08T11:13:56;29.50;;;22.27;;
19814;SDS011;10067;53.092;8.800;2024-03-08T11:16:38;30.55;;;21.88;;
19814;SDS011;10067;53.092;8.800;2024-03-08T11:19:22;30.65;;;21.90;;
19814;SDS011;10067;53.092;8.800;2024-03-08T11:21:56;30.70;;;22.00;;
19814;SDS011;10067;53.092;8.800;2024-03-08T11:24:24;29.58;;;21.33;;
19814;SDS011;10067;53.092;8.800;2024-03-08T11:26:54;28.73;;;21.45;;
19814;SDS011;10067;53.092;8.800;2024-03-08T11:29:32;30.38;;;21.13;;
19814;SDS011;10067;53.092;8.800;2024-03-08T11:32:03;27.90;;;22.13;;
19814;SDS011;10067;53.092;8.800;2024-03-08T11:34:30;26.63;;;21.35;;
19814;SDS011;10067;53.092;8.800;2024-03-08T11:36:58;27.75;;;21.45;;
19814;SDS011;10067;53.092;8.800;2024-03-08T11:39:26;30.05;;;21.48;;
19814;SDS011;10067;53.092;8.800;2024-03-08T11:41:53;27.00;;;20.67;;
19814;SDS011;10067;53.092;8.800;2024-03-08T11:44:20;27.02;;;20.83;;
19814;SDS011;10067;53.092;8.800;2024-03-08T11:46:46;29.73;;;21.40;;
19814;SDS011;10067;53.092;8.800;2024-03-08T11:49:13;28.77;;;21.95;;
19814;SDS011;10067;53.092;8.800;2024-03-08T11:51:39;26.17;;;20.77;;
19814;SDS011;10067;53.092;8.800;2024-03-08T11:54:06;25.48;;;20.77;;
19814;SDS011;10067;53.092;8.800;2024-03-08T11:56:38;27.52;;;20.15;;
19814;SDS011;10067;53.092;8.800;2024-03-08T11:59:10;26.08;;;20.38;;
19814;SDS011;10067;53.092;8.800;2024-03-08T12:01:38;24.65;;;20.05;;
19814;SDS011;10067;53.092;8.800;2024-03-08T12:04:04;28.60;;;19.75;;
19814;SDS011;10067;53.092;8.800;2024-03-08T12:06:36;30.60;;;19.83;;
19814;SDS011;10067;53.092;8.800;2024-03-08T12:09:04;26.08;;;20.33;;
19814;SDS011;10067;53.092;8.800;2024-03-08T12:11:30;27.75;;;19.25;;
19814;SDS011;10067;53.092;8.800;2024-03-08T12:13:58;28.63;;;19.92;;
19814;SDS011;10067;53.092;8.800;2024-03-08T12:16:26;25.80;;;19.33;;
19814;SDS011;10067;53.092;8.800;2024-03-08T12:18:52;25.35;;;19.65;;
19814;SDS011;10067;53.092;8.800;2024-03-08T12:21:19;26.48;;;19.63;;
19814;SDS011;10067;53.092;8.800;2024-03-08T12:23:47;26.30;;;19.33;;
19814;SDS011;10067;53.092;8.800;2024-03-08T12:26:16;24.88;;;19.13;;
19814;SDS011;10067;53.092;8.800;2024-03-08T12:28:43;23.92;;;18.30;;
19814;SDS011;10067;53.092;8.800;2024-03-08T12:31:12;24.33;;;19.48;;
19814;SDS011;10067;53.092;8.800;2024-03-08T12:33:47;24.50;;;19.40;;
19814;SDS011;10067;53.092;8.800;2024-03-08T12:36:14;30.33;;;19.17;;
19814;SDS011;10067;53.092;8.800;2024-03-08T12:38:43;28.05;;;20.70;;
19814;SDS011;10067;53.092;8.800;2024-03-08T12:41:10;24.83;;;18.55;;
19814;SDS011;10067;53.092;8.800;2024-03-08T12:43:36;27.67;;;20.02;;
19814;SDS011;10067;53.092;8.800;2024-03-08T12:46:02;24.90;;;20.17;;
19814;SDS011;10067;53.092;8.800;2024-03-08T12:48:35;25.73;;;20.05;;
19814;SDS011;10067;53.092;8.800;2024-03-08T12:51:01;25.83;;;18.95;;
19814;SDS011;10067;53.092;8.800;2024-03-08T12:53:28;27.77;;;20.27;;
19814;SDS011;10067;53.092;8.800;2024-03-08T12:55:55;23.40;;;18.67;;
19814;SDS011;10067;53.092;8.800;2024-03-08T12:58:22;24.95;;;20.40;;
19814;SDS011;10067;53.092;8.800;2024-03-08T13:00:48;27.50;;;21.35;;
19814;SDS011;10067;53.092;8.800;2024-03-08T13:03:14;30.95;;;21.20;;
19814;SDS011;10067;53.092;8.800;2024-03-08T13:05:43;27.80;;;20.75;;
19814;SDS011;10067;53.092;8.800;2024-03-08T13:08:10;28.35;;;20.92;;
19814;SDS011;10067;53.092;8.800;2024-03-08T13:10:38;25.38;;;20.00;;
19814;SDS011;10067;53.092;8.800;2024-03-08T13:13:04;27.50;;;20.63;;
19814;SDS011;10067;53.092;8.800;2024-03-08T13:15:31;26.30;;;20.80;;
19814;SDS011;10067;53.092;8.800;2024-03-08T13:17:58;27.92;;;21.33;;
19814;SDS011;10067;53.092;8.800;2024-03-08T13:20:25;29.45;;;21.15;;
19814;SDS011;10067;53.092;8.800;2024-03-08T13:22:55;26.38;;;20.55;;
19814;SDS011;10067;53.092;8.800;2024-03-08T13:25:21;27.92;;;20.77;;
19814;SDS011;10067;53.092;8.800;2024-03-08T13:27:49;30.88;;;21.10;;
19814;SDS011;10067;53.092;8.800;2024-03-08T13:30:15;31.25;;;21.42;;
19814;SDS011;10067;53.092;8.800;2024-03-08T13:32:43;31.58;;;20.75;;
19814;SDS011;10067;53.092;8.800;2024-03-08T13:35:09;26.10;;;20.90;;
19814;SDS011;10067;53.092;8.800;2024-03-08T13:37:38;30.63;;;21.48;;
19814;SDS011;10067;53.092;8.800;2024-03-08T13:40:06;27.50;;;21.02;;
19814;SDS011;10067;53.092;8.800;2024-03-08T13:42:36;27.45;;;21.13;;
19814;SDS011;10067;53.092;8.800;2024-03-08T13:45:03;26.73;;;20.38;;
19814;SDS011;10067;53.092;8.800;2024-03-08T13:47:30;25.58;;;19.27;;
19814;SDS011;10067;53.092;8.800;2024-03-08T13:49:57;24.67;;;19.10;;
19814;SDS011;10067;53.092;8.800;2024-03-08T13:52:23;28.75;;;20.38;;
19814;SDS011;10067;53.092;8.800;2024-03-08T13:54:50;28.42;;;19.80;;
19814;SDS011;10067;53.092;8.800;2024-03-08T13:57:18;27.85;;;19.35;;
19814;SDS011;10067;53.092;8.800;2024-03-08T13:59:44;27.02;;;20.60;;
19814;SDS011;10067;53.092;8.800;2024-03-08T14:02:11;26.42;;;20.52;;
19814;SDS011;10067;53.092;8.800;2024-03-08T14:04:38;26.98;;;19.40;;
19814;SDS011;10067;53.092;8.800;2024-03-08T14:07:06;27.85;;;20.20;;
19814;SDS011;10067;53.092;8.800;2024-03-08T14:09:33;25.70;;;19.52;;
19814;SDS011;10067;53.092;8.800;2024-03-08T14:12:02;26.10;;;19.65;;
19814;SDS011;10067;53.092;8.800;2024-03-08T14:14:33;25.48;;;19.67;;
19814;SDS011;10067;53.092;8.800;2024-03-08T14:17:00;29.83;;;20.35;;
19814;SDS011;10067;53.092;8.800;2024-03-08T14:19:26;26.40;;;20.25;;
19814;SDS011;10067;53.092;8.800;2024-03-08T14:21:53;52.65;;;34.85;;